Time;durP1;ratioP1;P1;durP2;ratioP2;P2;SDS_P1;SDS_P2;PMS_P1;PMS_P2;Temp;Humidity;BMP_temperature;BMP_pressure;BME280_temperature;BME280_humidity;BME280_pressure;Samples;Min_cycle;Max_cycle;Signal;HPM_P1;HPM_P2
2022/05/27 00:01:17;;;;;;;7.90;4.95;;;;;;;8.50;96.12;99090.66;5083390;28;20539;-76
2022/05/27 00:03:43;;;;;;;7.73;4.80;;;;;;;8.50;96.05;99083.28;5090836;28;20052;-75
2022/05/27 00:06:09;;;;;;;8.68;4.85;;;;;;;8.51;96.51;99082.19;5083122;28;20515;-77
2022/05/27 00:08:35;;;;;;;8.75;4.85;;;;;;;8.54;95.96;99078.03;5080814;28;20036;-76
2022/05/27 00:11:02;;;;;;;10.05;5.63;;;;;;;8.54;96.71;99075.31;5069860;28;20047;-77
2022/05/27 00:13:29;;;;;;;8.07;5.38;;;;;;;8.56;96.48;99081.28;5072149;28;20040;-74
2022/05/27 00:15:54;;;;;;;9.57;6.03;;;;;;;8.57;96.42;99072.75;5072308;28;20510;-75
2022/05/27 00:18:20;;;;;;;9.65;5.20;;;;;;;8.57;96.63;99080.97;5069123;28;20040;-75
2022/05/27 00:20:47;;;;;;;7.68;5.20;;;;;;;8.59;96.97;99065.06;5082935;28;20043;-75
2022/05/27 00:23:14;;;;;;;8.45;5.53;;;;;;;8.59;96.26;99073.25;5069259;28;20063;-76
2022/05/27 00:25:40;;;;;;;10.45;5.65;;;;;;;8.57;96.72;99059.09;5075946;28;20042;-76
2022/05/27 00:28:07;;;;;;;10.07;5.78;;;;;;;8.56;96.77;99054.75;5093306;28;20078;-75
2022/05/27 00:30:32;;;;;;;10.18;5.75;;;;;;;8.54;96.87;99056.16;5089283;28;20028;-74
2022/05/27 00:32:58;;;;;;;8.82;5.40;;;;;;;8.55;96.28;99052.31;5089735;28;20036;-74
2022/05/27 00:35:24;;;;;;;10.63;6.82;;;;;;;8.54;96.81;99048.78;5088816;28;20079;-75
2022/05/27 00:37:50;;;;;;;9.48;5.25;;;;;;;8.55;96.65;99046.84;5077503;28;20048;-75
2022/05/27 00:40:16;;;;;;;8.77;6.50;;;;;;;8.56;96.46;99046.53;5072819;28;20402;-74
2022/05/27 00:42:43;;;;;;;8.43;5.43;;;;;;;8.56;97.04;99043.00;5073794;28;20111;-74
2022/05/27 00:45:14;;;;;;;9.50;5.93;;;;;;;8.60;96.59;99046.72;5078883;28;20036;-74
2022/05/27 00:47:40;;;;;;;10.05;5.93;;;;;;;8.63;96.90;99046.91;5087174;28;20032;-75
2022/05/27 00:50:09;;;;;;;9.00;5.63;;;;;;;8.70;96.99;99041.84;5106873;28;20106;-75
2022/05/27 00:52:37;;;;;;;9.30;5.63;;;;;;;8.73;96.28;99038.50;5083757;28;20074;-76
2022/05/27 00:55:06;;;;;;;9.38;5.93;;;;;;;8.73;97.25;99043.16;5079045;28;20479;-72
2022/05/27 00:57:39;;;;;;;10.18;5.93;;;;;;;8.75;97.03;99030.78;5087311;28;20059;-72
2022/05/27 01:00:09;;;;;;;9.38;6.30;;;;;;;8.77;97.25;99034.03;5091735;28;20593;-72
2022/05/27 01:02:36;;;;;;;10.70;6.55;;;;;;;8.77;96.74;99017.59;5091362;28;20070;-72
2022/05/27 01:05:03;;;;;;;11.90;6.93;;;;;;;8.76;97.08;99023.38;5089227;28;20466;-72
2022/05/27 01:07:29;;;;;;;11.30;6.57;;;;;;;8.76;97.25;99017.94;5073844;28;20119;-72
2022/05/27 01:09:56;;;;;;;11.38;7.25;;;;;;;8.74;97.60;99015.50;5093089;28;20040;-72
2022/05/27 01:12:31;;;;;;;12.00;7.05;;;;;;;8.73;97.32;99005.69;5085987;28;20043;-72
2022/05/27 01:15:08;;;;;;;13.43;7.15;;;;;;;8.75;97.36;99003.44;5081818;28;20037;-72
2022/05/27 01:17:50;;;;;;;12.35;7.80;;;;;;;8.77;96.81;99001.19;5092416;28;20027;-72
2022/05/27 01:20:29;;;;;;;11.73;7.07;;;;;;;8.77;97.16;99000.41;5073204;28;20495;-72
2022/05/27 01:22:58;;;;;;;14.18;6.93;;;;;;;8.79;97.30;98994.63;5090236;28;20040;-72
2022/05/27 01:25:46;;;;;;;12.68;7.15;;;;;;;8.80;97.25;98999.78;5084162;28;20064;-72
2022/05/27 01:28:23;;;;;;;9.40;6.18;;;;;;;8.82;96.94;98992.06;5087731;28;20032;-72
2022/05/27 01:30:53;;;;;;;10.95;6.75;;;;;;;8.87;96.59;98989.22;5092239;28;20126;-72
2022/05/27 01:33:44;;;;;;;10.15;6.40;;;;;;;8.98;97.32;98979.63;5085882;28;20040;-72
2022/05/27 01:36:28;;;;;;;10.50;6.43;;;;;;;9.05;97.43;98984.69;5085997;28;20075;-73
2022/05/27 01:39:22;;;;;;;10.23;6.22;;;;;;;9.11;96.84;98986.16;5087415;28;20060;-72
2022/05/27 01:42:03;;;;;;;10.18;6.78;;;;;;;9.16;96.61;98977.81;5090021;28;20127;-72
2022/05/27 01:44:55;;;;;;;10.82;7.15;;;;;;;9.22;97.44;98973.06;5086445;28;20036;-73
2022/05/27 01:47:44;;;;;;;10.50;6.15;;;;;;;9.29;96.67;98984.34;5091824;28;20040;-72
2022/05/27 01:50:23;;;;;;;10.88;6.57;;;;;;;9.35;97.10;98977.63;5092032;28;20825;-72
2022/05/27 01:53:00;;;;;;;10.75;6.47;;;;;;;9.41;96.95;98972.84;5090801;28;20032;-73
2022/05/27 01:55:31;;;;;;;11.05;6.20;;;;;;;9.41;97.10;98967.34;5085098;28;20526;-72
2022/05/27 01:58:03;;;;;;;8.70;6.13;;;;;;;9.42;97.22;98968.97;5090356;28;20559;-72
2022/05/27 02:00:29;;;;;;;10.05;6.25;;;;;;;9.44;96.84;98964.00;5090333;28;20506;-72
2022/05/27 02:02:58;;;;;;;9.15;6.03;;;;;;;9.43;96.45;98965.13;5086172;28;20036;-71
2022/05/27 02:05:53;;;;;;;10.15;5.68;;;;;;;9.43;96.62;98970.59;5085189;28;20040;-71
2022/05/27 02:08:25;;;;;;;7.35;5.47;;;;;;;9.48;96.47;98970.44;5075533;28;20174;-72
2022/05/27 02:10:57;;;;;;;9.00;5.78;;;;;;;9.52;96.23;98960.47;5071644;28;20068;-72
2022/05/27 02:13:31;;;;;;;9.20;5.40;;;;;;;9.49;95.58;98961.91;5089456;28;20040;-71
2022/05/27 02:15:57;;;;;;;10.30;5.65;;;;;;;9.48;95.33;98959.50;5078697;28;20044;-72
2022/05/27 02:18:29;;;;;;;7.38;5.15;;;;;;;9.44;95.36;98967.53;5090516;28;20032;-71
2022/05/27 02:21:23;;;;;;;8.65;5.72;;;;;;;9.43;95.66;98962.38;5091869;28;20067;-72
2022/05/27 02:23:53;;;;;;;9.32;5.45;;;;;;;9.44;95.46;98953.84;5084082;28;20102;-72
2022/05/27 02:26:22;;;;;;;7.72;4.60;;;;;;;9.47;94.97;98957.88;5088139;28;20482;-72
2022/05/27 02:29:10;;;;;;;7.20;4.88;;;;;;;9.47;94.65;98952.41;5086218;28;20251;-73
2022/05/27 02:31:37;;;;;;;8.07;4.47;;;;;;;9.48;94.36;98954.81;5072219;28;20032;-73
2022/05/27 02:37:15;;;;;;;5.28;3.75;;;;;;;9.53;93.78;98954.69;5086684;28;20056;-73
2022/05/27 02:39:40;;;;;;;7.35;4.28;;;;;;;9.56;93.41;98945.84;5088336;28;20304;-73
2022/05/27 02:42:22;;;;;;;6.82;4.57;;;;;;;9.59;93.48;98934.25;5090224;28;20032;-72
2022/05/27 02:44:56;;;;;;;5.45;3.50;;;;;;;9.61;92.97;98937.50;5083699;28;20050;-72
2022/05/27 02:47:48;;;;;;;4.55;3.63;;;;;;;9.64;91.80;98941.53;5088865;28;20039;-72
2022/05/27 02:50:41;;;;;;;5.78;3.70;;;;;;;9.66;91.87;98936.53;5089183;28;20061;-72
2022/05/27 02:53:20;;;;;;;4.28;3.25;;;;;;;9.62;92.02;98938.28;5089993;28;20444;-72
2022/05/27 02:56:05;;;;;;;4.80;3.70;;;;;;;9.65;91.19;98938.47;5085474;28;20105;-72
2022/05/27 02:58:31;;;;;;;4.40;3.42;;;;;;;9.64;90.91;98941.53;5089737;28;20526;-72
2022/05/27 03:00:57;;;;;;;6.97;3.42;;;;;;;9.67;90.54;98943.63;5090495;28;20079;-72
2022/05/27 03:03:23;;;;;;;4.18;3.13;;;;;;;9.67;90.21;98935.41;5086479;28;20036;-72
2022/05/27 03:06:20;;;;;;;5.88;3.05;;;;;;;9.60;90.26;98935.06;5082729;28;20032;-72
2022/05/27 03:09:09;;;;;;;3.88;2.58;;;;;;;9.58;90.23;98940.06;5083421;28;20155;-72
2022/05/27 03:12:05;;;;;;;3.45;2.45;;;;;;;9.57;89.57;98939.25;5084545;28;20043;-72
2022/05/27 03:14:50;;;;;;;3.55;2.70;;;;;;;9.54;88.97;98931.66;5085137;28;20032;-72
2022/05/27 03:17:42;;;;;;;3.55;2.72;;;;;;;9.51;88.52;98936.94;5090328;28;20028;-72
2022/05/27 03:20:32;;;;;;;4.07;2.60;;;;;;;9.54;88.98;98933.56;5089515;28;20051;-72
2022/05/27 03:23:15;;;;;;;3.22;2.70;;;;;;;9.58;89.02;98926.38;5083416;28;20059;-72
2022/05/27 03:26:02;;;;;;;4.32;2.85;;;;;;;9.61;88.36;98931.22;5078199;28;20117;-73
2022/05/27 03:28:51;;;;;;;4.32;2.90;;;;;;;9.60;88.79;98929.59;5090245;28;20128;-72
2022/05/27 03:31:29;;;;;;;3.33;2.30;;;;;;;9.56;88.12;98923.94;5038694;28;20051;-72
2022/05/27 03:34:14;;;;;;;2.80;2.33;;;;;;;9.58;88.44;98926.38;5084932;28;20200;-72
2022/05/27 03:36:44;;;;;;;3.30;2.50;;;;;;;9.58;88.29;98924.44;5089866;28;20040;-72
2022/05/27 03:39:30;;;;;;;3.67;2.28;;;;;;;9.62;87.88;98927.34;5087152;28;20036;-72
2022/05/27 03:41:59;;;;;;;3.72;2.50;;;;;;;9.66;87.70;98914.63;5088933;28;20060;-72
2022/05/27 03:44:27;;;;;;;;;;;;;;;9.71;87.21;98916.41;5080696;28;20036;-72
2022/05/27 03:46:55;;;;;;;2.00;1.80;;;;;;;9.67;87.24;98918.97;5085744;28;19927;-72
2022/05/27 03:49:21;;;;;;;2.92;2.13;;;;;;;9.61;86.45;98914.78;5090368;28;20036;-72
2022/05/27 03:52:06;;;;;;;2.10;1.90;;;;;;;9.59;86.24;98911.56;5086325;28;20040;-72
2022/05/27 03:54:32;;;;;;;2.80;1.70;;;;;;;9.61;86.30;98906.56;5089977;28;20494;-72
2022/05/27 03:56:58;;;;;;;3.05;1.90;;;;;;;9.64;86.38;98914.13;5090064;28;20048;-73
2022/05/27 03:59:24;;;;;;;3.20;2.13;;;;;;;9.64;85.91;98914.13;5090164;28;20093;-73
2022/05/27 04:01:52;;;;;;;3.00;2.03;;;;;;;9.62;86.15;98905.44;5092434;28;20036;-73
2022/05/27 04:04:20;;;;;;;2.00;1.80;;;;;;;9.61;85.56;98904.63;5093929;28;20405;-73
2022/05/27 04:06:48;;;;;;;2.70;2.05;;;;;;;9.58;85.61;98905.25;5094159;28;20032;-71
2022/05/27 04:09:16;;;;;;;2.30;1.90;;;;;;;9.48;85.83;98908.28;5090522;28;20044;-72
2022/05/27 04:11:41;;;;;;;3.90;2.38;;;;;;;9.50;85.96;98913.44;5084912;28;20032;-72
2022/05/27 04:14:08;;;;;;;3.08;1.80;;;;;;;9.43;86.30;98902.94;5094129;28;20036;-72
2022/05/27 04:16:33;;;;;;;2.78;2.10;;;;;;;9.40;86.10;98908.25;5092555;28;20040;-72
2022/05/27 04:18:59;;;;;;;2.00;1.80;;;;;;;9.40;86.53;98906.31;5089443;28;20044;-72
2022/05/27 04:21:25;;;;;;;4.47;2.25;;;;;;;9.39;86.60;98910.19;5090794;28;20032;-72
2022/05/27 04:23:51;;;;;;;2.83;1.92;;;;;;;9.39;86.98;98901.97;5092546;28;20085;-72
2022/05/27 04:26:17;;;;;;;2.40;2.00;;;;;;;9.40;86.33;98908.25;5087250;28;20464;-72
2022/05/27 04:28:43;;;;;;;2.63;1.92;;;;;;;9.35;86.96;98906.44;5083317;28;20034;-72
2022/05/27 04:31:08;;;;;;;2.13;1.85;;;;;;;9.32;87.22;98905.16;5086762;28;20131;-73
2022/05/27 04:33:34;;;;;;;5.18;1.90;;;;;;;9.32;86.35;98902.41;5077543;28;20040;-73
2022/05/27 04:36:00;;;;;;;2.22;2.03;;;;;;;9.29;86.85;98896.75;5077764;28;20036;-73
2022/05/27 04:38:26;;;;;;;2.55;2.00;;;;;;;9.25;87.06;98904.81;5078643;28;20491;-73
2022/05/27 04:40:51;;;;;;;3.25;1.70;;;;;;;9.24;86.52;98896.91;5091151;28;20054;-72
2022/05/27 04:43:17;;;;;;;3.88;1.30;;;;;;;9.27;86.84;98891.59;5090857;28;20029;-73
2022/05/27 04:45:43;;;;;;;2.33;1.35;;;;;;;9.27;86.91;98888.06;5091385;28;20078;-73
2022/05/27 04:48:10;;;;;;;2.25;1.55;;;;;;;9.29;86.90;98889.34;5085844;28;20040;-72
2022/05/27 04:50:36;;;;;;;2.50;1.67;;;;;;;9.27;86.85;98888.88;5086921;28;20074;-72
2022/05/27 04:53:02;;;;;;;1.67;1.30;;;;;;;9.24;86.75;98894.97;5076754;28;20032;-72
2022/05/27 04:55:30;;;;;;;1.73;1.55;;;;;;;9.23;86.74;98895.28;5089773;28;20047;-73
2022/05/27 04:57:56;;;;;;;1.20;1.10;;;;;;;9.29;86.02;98886.63;5086694;28;20048;-72
2022/05/27 05:00:25;;;;;;;1.65;1.48;;;;;;;9.32;85.97;98890.66;5072646;28;20047;-72
2022/05/27 05:02:52;;;;;;;1.25;1.15;;;;;;;9.37;85.96;98890.50;5083512;28;20032;-72
2022/05/27 05:05:19;;;;;;;1.33;1.17;;;;;;;9.40;86.15;98883.63;5079338;28;20198;-72
2022/05/27 05:07:48;;;;;;;1.77;1.30;;;;;;;9.47;85.60;98881.22;5091213;28;20040;-72
2022/05/27 05:10:16;;;;;;;1.48;1.35;;;;;;;9.52;86.34;98872.84;5069958;28;20043;-72
2022/05/27 05:12:43;;;;;;;1.40;0.98;;;;;;;9.55;85.34;98888.66;5071526;28;20037;-72
2022/05/27 05:15:09;;;;;;;2.97;1.23;;;;;;;9.55;85.78;98884.00;5072672;28;20052;-72
2022/05/27 05:17:36;;;;;;;2.22;1.55;;;;;;;9.54;84.86;98881.56;5072345;28;20040;-72
2022/05/27 05:20:01;;;;;;;1.92;1.50;;;;;;;9.51;85.00;98879.44;5072223;28;20048;-73
2022/05/27 05:22:27;;;;;;;1.88;1.38;;;;;;;9.50;84.89;98881.38;5072297;28;20037;-72
2022/05/27 05:24:55;;;;;;;2.20;1.50;;;;;;;9.57;85.58;98878.19;5074103;28;20048;-72
2022/05/27 05:27:26;;;;;;;2.33;1.50;;;;;;;9.62;85.44;98880.78;5072411;28;20037;-72
2022/05/27 05:29:52;;;;;;;1.67;1.40;;;;;;;9.66;85.05;98879.03;5071552;28;20049;-73
2022/05/27 05:32:19;;;;;;;2.15;1.63;;;;;;;9.67;85.21;98877.88;5071745;28;20090;-71
2022/05/27 05:34:44;;;;;;;3.30;1.80;;;;;;;9.61;84.75;98870.97;5072310;28;20037;-71
2022/05/27 05:37:10;;;;;;;2.08;1.42;;;;;;;9.61;85.35;98876.44;5089134;28;20036;-71
2022/05/27 05:39:39;;;;;;;2.38;1.85;;;;;;;9.55;85.29;98875.78;5086798;28;20048;-72
2022/05/27 05:42:06;;;;;;;4.18;2.20;;;;;;;9.53;85.62;98879.94;5076582;28;20048;-73
2022/05/27 05:44:33;;;;;;;2.10;1.90;;;;;;;9.53;85.13;98878.00;5087766;28;20036;-72
2022/05/27 05:46:59;;;;;;;2.40;1.60;;;;;;;9.57;85.23;98872.72;5081105;28;20040;-72
2022/05/27 05:49:25;;;;;;;2.55;2.05;;;;;;;9.53;85.87;98875.28;5070364;28;20273;-72
2022/05/27 05:51:51;;;;;;;2.28;2.03;;;;;;;9.57;85.23;98876.28;5085701;28;20123;-73
2022/05/27 05:54:19;;;;;;;2.53;1.75;;;;;;;9.60;85.98;98869.34;5075430;28;20547;-73
2022/05/27 05:56:44;;;;;;;2.17;1.48;;;;;;;9.59;86.10;98876.75;5038985;28;1111316;-73
2022/05/27 05:59:10;;;;;;;2.17;1.80;;;;;;;9.59;85.26;98865.00;5090212;28;20065;-73
2022/05/27 06:01:35;;;;;;;2.30;1.55;;;;;;;9.60;85.74;98870.16;5090612;28;20111;-72
2022/05/27 06:04:01;;;;;;;2.30;1.88;;;;;;;9.62;85.19;98873.38;5080544;28;20041;-72
2022/05/27 06:06:27;;;;;;;2.25;1.80;;;;;;;9.61;85.45;98869.03;5073189;28;20036;-72
2022/05/27 06:08:52;;;;;;;1.90;1.65;;;;;;;9.59;85.70;98867.75;5091065;28;20067;-72
2022/05/27 06:11:18;;;;;;;2.00;1.50;;;;;;;9.58;85.64;98875.16;5090610;28;20040;-72
2022/05/27 06:13:44;;;;;;;2.53;1.83;;;;;;;9.54;86.52;98867.84;5086674;28;20395;-72
2022/05/27 06:16:10;;;;;;;2.40;1.98;;;;;;;9.52;86.57;98870.13;5088801;28;20051;-72
2022/05/27 06:18:36;;;;;;;2.78;1.98;;;;;;;9.48;87.02;98861.72;5079633;28;20506;-72
2022/05/27 06:21:02;;;;;;;2.63;1.88;;;;;;;9.44;86.75;98876.38;5080514;28;20039;-73
2022/05/27 06:23:28;;;;;;;2.40;1.70;;;;;;;9.48;86.93;98866.41;5081633;28;20032;-73
2022/05/27 06:25:56;;;;;;;2.97;2.08;;;;;;;9.50;86.63;98864.16;5090597;28;20426;-73
2022/05/27 06:36:35;;;;;;;3.50;2.20;;;;;;;9.40;88.17;98870.72;5088779;28;20042;-72
2022/05/27 06:39:01;;;;;;;3.80;2.20;;;;;;;9.38;88.02;98867.50;5086369;28;20512;-73
2022/05/27 06:41:27;;;;;;;3.90;2.10;;;;;;;9.41;88.02;98868.81;5086253;28;20135;-72
2022/05/27 06:43:52;;;;;;;4.45;2.25;;;;;;;9.36;88.17;98862.31;5077201;28;20043;-73
2022/05/27 06:46:18;;;;;;;3.25;2.28;;;;;;;9.35;89.15;98866.19;5090594;28;20115;-73
2022/05/27 06:48:43;;;;;;;2.95;2.35;;;;;;;9.33;88.90;98860.22;5090235;28;20490;-73
2022/05/27 06:51:09;;;;;;;3.63;2.47;;;;;;;9.34;88.69;98861.03;5071636;28;20036;-73
2022/05/27 06:53:35;;;;;;;3.38;2.40;;;;;;;9.33;89.16;98865.69;5090209;28;20051;-73
2022/05/27 06:56:00;;;;;;;2.80;2.25;;;;;;;9.32;89.03;98863.28;5089478;28;20546;-72
2022/05/27 06:58:26;;;;;;;4.20;2.40;;;;;;;9.25;89.39;98862.94;5079197;28;20050;-73
2022/05/27 07:00:51;;;;;;;5.07;2.75;;;;;;;9.19;90.14;98859.53;5086167;28;20094;-72
2022/05/27 07:03:17;;;;;;;4.05;2.50;;;;;;;9.15;89.74;98863.22;5075903;28;20044;-73
2022/05/27 07:05:43;;;;;;;5.03;2.60;;;;;;;9.11;90.43;98857.56;5087829;28;20486;-73
2022/05/27 07:08:09;;;;;;;3.63;2.78;;;;;;;9.03;90.47;98861.09;5075456;28;20451;-71
2022/05/27 07:10:34;;;;;;;3.95;2.45;;;;;;;8.99;90.12;98862.81;5073574;28;20174;-72
2022/05/27 07:13:00;;;;;;;4.88;2.45;;;;;;;9.01;90.38;98866.03;5072292;28;20045;-72
2022/05/27 07:15:27;;;;;;;4.03;2.38;;;;;;;9.00;90.10;98862.50;5086572;28;20458;-71
2022/05/27 07:17:52;;;;;;;2.95;1.83;;;;;;;8.99;90.06;98865.53;5088781;28;20055;-72
2022/05/27 07:20:18;;;;;;;4.05;2.38;;;;;;;8.95;90.27;98868.09;5085916;28;20402;-73
2022/05/27 07:22:44;;;;;;;4.90;2.80;;;;;;;8.94;90.02;98868.41;5071475;28;20494;-73
2022/05/27 07:25:13;;;;;;;3.28;2.30;;;;;;;8.93;90.49;98862.13;5071108;28;20040;-72
2022/05/27 07:27:42;;;;;;;5.03;2.63;;;;;;;8.95;90.62;98870.03;5090881;28;20487;-72
2022/05/27 07:30:08;;;;;;;;;;;;;;;8.98;90.41;98869.41;5077383;28;20036;-72
2022/05/27 07:32:37;;;;;;;4.25;2.38;;;;;;;9.02;90.96;98875.84;5082912;28;19965;-72
2022/05/27 07:35:04;;;;;;;4.53;2.55;;;;;;;9.06;90.93;98874.13;5078032;28;20044;-72
2022/05/27 07:37:30;;;;;;;4.32;2.70;;;;;;;9.07;91.13;98868.34;5071124;28;20049;-72
2022/05/27 07:39:55;;;;;;;4.22;1.98;;;;;;;9.08;90.63;98871.88;5075281;28;20040;-72
2022/05/27 07:42:21;;;;;;;3.88;2.75;;;;;;;9.10;91.20;98875.09;5086964;28;20044;-72
2022/05/27 07:44:47;;;;;;;4.85;2.67;;;;;;;9.09;90.84;98873.50;5084373;28;20132;-72
2022/05/27 07:47:12;;;;;;;4.82;2.40;;;;;;;9.09;90.71;98869.94;5088031;28;20096;-72
2022/05/27 07:49:38;;;;;;;3.95;3.05;;;;;;;9.14;90.92;98869.81;5081866;28;20040;-73
2022/05/27 07:52:05;;;;;;;3.75;2.47;;;;;;;9.20;91.06;98871.28;5070221;28;20041;-72
2022/05/27 07:54:31;;;;;;;4.30;2.30;;;;;;;9.18;90.13;98874.31;5071228;28;20036;-71
2022/05/27 07:56:57;;;;;;;3.42;2.47;;;;;;;9.20;90.47;98877.59;5084999;28;20387;-71
2022/05/27 07:59:22;;;;;;;2.88;2.17;;;;;;;9.23;90.04;98876.13;5078214;28;20032;-73
2022/05/27 08:01:48;;;;;;;4.30;2.40;;;;;;;9.27;90.07;98868.91;5089252;28;20043;-73
2022/05/27 08:04:14;;;;;;;3.63;1.98;;;;;;;9.28;89.37;98868.59;5075767;28;20134;-73
2022/05/27 08:06:40;;;;;;;3.50;2.83;;;;;;;9.29;89.45;98867.47;5086170;28;20450;-73
2022/05/27 08:09:06;;;;;;;3.55;2.20;;;;;;;9.30;89.78;98881.94;5082353;28;20029;-72
2022/05/27 08:11:32;;;;;;;3.65;2.30;;;;;;;9.26;89.26;98876.31;5085079;28;20040;-72
2022/05/27 08:14:00;;;;;;;4.15;2.90;;;;;;;9.21;88.46;98887.41;5086204;28;20036;-73
2022/05/27 08:16:26;;;;;;;3.35;2.35;;;;;;;9.17;89.19;98883.66;5098282;28;20048;-73
2022/05/27 08:18:52;;;;;;;3.08;2.20;;;;;;;9.13;89.28;98888.16;5088340;28;20072;-72
2022/05/27 08:21:17;;;;;;;4.05;2.53;;;;;;;9.14;88.67;98886.22;5076876;28;20075;-72
2022/05/27 08:23:43;;;;;;;3.17;2.60;;;;;;;9.19;89.03;98880.59;5076700;28;20036;-72
2022/05/27 08:26:09;;;;;;;3.42;2.25;;;;;;;9.24;88.58;98885.97;5085480;28;20051;-72
2022/05/27 08:28:34;;;;;;;4.45;2.17;;;;;;;9.23;87.90;98887.91;5072553;28;20555;-72
2022/05/27 08:31:00;;;;;;;6.20;3.10;;;;;;;9.27;87.65;98885.31;5073110;28;20044;-72
2022/05/27 08:38:00;;;;;;;5.28;2.60;;;;;;;9.30;87.60;98887.44;5078218;28;20028;-73
2022/05/27 08:38:59;;;;;;;3.45;2.22;;;;;;;9.35;87.74;98890.00;5087611;28;20034;-73
2022/05/27 08:41:57;;;;;;;2.60;1.95;;;;;;;9.42;87.14;98889.56;5074971;28;20041;-71
2022/05/27 08:44:48;;;;;;;3.03;1.85;;;;;;;9.50;87.12;98891.53;5076475;28;20040;-73
2022/05/27 08:47:21;;;;;;;7.15;2.17;;;;;;;9.50;86.40;98892.34;5085858;28;20127;-73
2022/05/27 08:49:52;;;;;;;4.07;1.95;;;;;;;9.55;86.72;98885.94;5077878;28;20072;-72
2022/05/27 08:52:28;;;;;;;2.05;1.60;;;;;;;9.60;86.31;98880.31;5080485;28;20040;-72
2022/05/27 08:54:57;;;;;;;2.70;2.00;;;;;;;9.62;85.73;98884.34;5077611;28;20086;-72
2022/05/27 09:00:14;;;;;;;5.50;2.10;;;;;;;9.68;84.37;98885.78;5076350;28;20067;-72
2022/05/27 09:02:56;;;;;;;3.78;1.92;;;;;;;9.71;83.77;98889.81;5085930;28;20082;-73
2022/05/27 09:05:27;;;;;;;4.90;2.25;;;;;;;9.73;82.84;98890.34;5075168;28;20085;-72
2022/05/27 09:07:59;;;;;;;3.97;1.95;;;;;;;9.70;82.18;98893.69;5067292;28;20037;-72
2022/05/27 09:10:34;;;;;;;3.13;1.80;;;;;;;9.76;81.71;98894.38;5079054;28;20039;-72
2022/05/27 09:13:18;;;;;;;3.05;1.70;;;;;;;9.77;81.20;98895.97;5089900;28;20047;-72
2022/05/27 09:16:04;;;;;;;3.33;2.22;;;;;;;9.88;80.86;98898.09;5071776;28;20033;-71
2022/05/27 09:18:42;;;;;;;2.65;1.77;;;;;;;9.93;80.85;98891.66;5074278;28;20047;-72
2022/05/27 09:21:07;;;;;;;4.30;1.70;;;;;;;10.02;80.58;98892.47;5082616;28;20036;-72
2022/05/27 09:24:06;;;;;;;2.65;2.03;;;;;;;10.14;80.79;98898.13;5073669;28;20028;-72
2022/05/27 09:26:46;;;;;;;6.53;1.98;;;;;;;10.24;80.87;98886.91;5073862;28;20065;-73
2022/05/27 09:29:40;;;;;;;3.42;2.03;;;;;;;10.26;80.14;98898.34;5097661;28;20036;-72
2022/05/27 09:32:10;;;;;;;3.75;2.20;;;;;;;10.35;80.02;98894.78;5073930;28;20136;-73
2022/05/27 09:34:38;;;;;;;3.55;2.35;;;;;;;10.35;80.21;98887.38;5089226;28;20170;-72
2022/05/27 09:37:06;;;;;;;2.67;2.00;;;;;;;10.36;79.63;98891.72;5066377;28;20505;-72
2022/05/27 09:39:32;;;;;;;4.82;2.20;;;;;;;10.38;79.21;98883.97;5087631;28;20061;-72
2022/05/27 09:42:16;;;;;;;7.20;2.60;;;;;;;10.38;78.89;98886.72;5075715;28;20048;-71
2022/05/27 09:44:49;;;;;;;5.18;2.40;;;;;;;10.38;79.74;98883.97;5083202;28;20551;-72
2022/05/27 09:47:16;;;;;;;4.05;2.53;;;;;;;10.40;79.48;98881.72;5087192;28;20044;-72
2022/05/27 09:49:45;;;;;;;3.85;2.40;;;;;;;10.41;79.27;98885.28;5091364;28;20081;-72
2022/05/27 09:52:10;;;;;;;5.30;2.50;;;;;;;10.42;78.74;98879.50;5090898;28;20040;-72
2022/05/27 09:54:59;;;;;;;4.82;2.03;;;;;;;10.43;79.34;98883.03;5082667;28;20445;-72
2022/05/27 09:57:26;;;;;;;3.75;2.20;;;;;;;10.40;79.06;98881.72;5080654;28;20045;-73
2022/05/27 09:59:57;;;;;;;4.88;2.60;;;;;;;10.38;79.38;98881.25;5083497;28;20044;-73
2022/05/27 10:02:28;;;;;;;3.03;1.88;;;;;;;10.37;79.33;98876.09;5073945;28;20506;-73
2022/05/27 10:05:03;;;;;;;3.28;2.10;;;;;;;10.38;79.00;98872.22;5090847;28;20422;-72
2022/05/27 10:07:42;;;;;;;4.22;2.40;;;;;;;10.39;78.61;98880.09;5072063;28;20041;-72
2022/05/27 10:10:34;;;;;;;3.45;2.25;;;;;;;10.45;78.72;98887.06;5076016;28;20055;-72
2022/05/27 10:13:13;;;;;;;5.63;2.40;;;;;;;10.51;78.42;98887.69;5078723;28;20434;-72
2022/05/27 10:15:39;;;;;;;4.18;2.38;;;;;;;10.56;78.70;98885.59;5079103;28;20067;-71
2022/05/27 10:18:17;;;;;;;5.03;2.40;;;;;;;10.60;78.99;98874.81;5079574;28;20056;-71
2022/05/27 10:20:48;;;;;;;4.15;2.30;;;;;;;10.65;78.39;98888.34;5079993;28;20082;-72
2022/05/27 10:23:22;;;;;;;3.65;2.60;;;;;;;10.69;78.15;98883.00;5074187;28;20043;-71
2022/05/27 10:25:48;;;;;;;3.85;2.30;;;;;;;10.70;78.58;98882.69;5074069;28;20036;-72
2022/05/27 10:28:23;;;;;;;3.50;2.33;;;;;;;10.71;78.18;98886.22;5080375;28;20043;-68
2022/05/27 10:30:55;;;;;;;3.20;2.38;;;;;;;10.67;77.63;98890.75;5076669;28;20055;-70
2022/05/27 10:33:24;;;;;;;3.72;2.22;;;;;;;10.67;77.89;98880.59;5078733;28;20166;-70
2022/05/27 10:35:52;;;;;;;5.00;2.10;;;;;;;10.73;76.93;98876.53;5083413;28;20418;-70
2022/05/27 10:38:36;;;;;;;3.80;2.47;;;;;;;10.75;76.67;98877.00;5081397;28;20063;-71
2022/05/27 10:41:27;;;;;;;4.00;2.00;;;;;;;10.80;76.89;98873.31;5079480;28;20067;-70
2022/05/27 10:44:11;;;;;;;3.78;2.35;;;;;;;10.90;75.73;98877.63;5077908;28;20040;-69
2022/05/27 10:46:48;;;;;;;3.40;2.35;;;;;;;10.95;75.65;98877.50;5075349;28;20040;-70
2022/05/27 10:49:26;;;;;;;3.90;1.83;;;;;;;11.04;75.21;98872.75;5083700;28;20098;-70
2022/05/27 10:52:07;;;;;;;3.22;1.77;;;;;;;11.09;75.09;98873.38;5080103;28;20032;-70
2022/05/27 10:54:55;;;;;;;2.90;1.98;;;;;;;11.13;74.42;98868.06;5078559;28;20040;-70
2022/05/27 11:03:54;;;;;;;4.78;1.77;;;;;;;11.17;73.33;98869.03;5075570;28;20032;-71
2022/05/27 11:06:54;;;;;;;5.20;1.95;;;;;;;11.23;73.58;98864.94;5078249;28;20125;-71
2022/05/27 11:09:44;;;;;;;3.38;1.85;;;;;;;11.30;73.84;98869.94;5087978;28;20043;-70
2022/05/27 11:12:13;;;;;;;6.53;2.00;;;;;;;11.36;72.34;98865.88;5074371;28;20052;-69
2022/05/27 11:17:37;;;;;;;2.40;1.30;;;;;;;11.39;71.72;98868.75;5076647;28;20032;-70
2022/05/27 11:20:24;;;;;;;1.80;1.65;;;;;;;11.47;71.46;98869.88;5059658;28;20644;-70
2022/05/27 11:23:14;;;;;;;3.05;1.63;;;;;;;11.62;71.16;98872.03;5078258;28;20048;-71
2022/05/27 11:26:05;;;;;;;4.15;1.88;;;;;;;11.66;70.95;98870.25;5081568;28;20097;-72
2022/05/27 11:28:46;;;;;;;3.00;1.88;;;;;;;11.69;69.49;98866.84;5064822;28;20127;-71
2022/05/27 11:31:27;;;;;;;4.63;1.85;;;;;;;11.70;69.01;98873.16;5084652;28;20040;-71
2022/05/27 11:34:26;;;;;;;2.72;1.95;;;;;;;11.69;68.41;98861.34;5078752;28;20119;-72
2022/05/27 11:37:39;;;;;;;3.88;1.83;;;;;;;11.70;68.42;98857.47;5083628;28;20043;-72
2022/05/27 11:40:24;;;;;;;2.28;1.45;;;;;;;11.70;68.19;98857.47;5069365;28;20094;-70
2022/05/27 11:43:01;;;;;;;3.78;1.80;;;;;;;11.71;68.61;98861.03;5086172;28;20024;-70
2022/05/27 11:45:29;;;;;;;2.80;1.60;;;;;;;11.77;68.71;98860.47;5081402;28;20036;-70
2022/05/27 11:48:24;;;;;;;2.72;1.70;;;;;;;11.81;68.01;98863.44;5081364;28;20526;-70
2022/05/27 11:51:04;;;;;;;2.83;1.45;;;;;;;11.84;67.53;98856.47;5079324;28;20477;-70
2022/05/27 11:53:50;;;;;;;2.38;1.75;;;;;;;11.91;68.18;98863.03;5089710;28;20134;-71
2022/05/27 11:56:25;;;;;;;2.33;1.48;;;;;;;11.97;67.03;98860.88;5089533;28;20051;-71
2022/05/27 11:59:00;;;;;;;3.55;1.67;;;;;;;11.98;67.07;98863.31;5085125;28;20182;-71
2022/05/27 12:01:46;;;;;;;2.38;1.60;;;;;;;12.05;66.49;98860.03;5080209;28;20036;-69
2022/05/27 12:04:30;;;;;;;3.97;1.83;;;;;;;12.07;66.75;98866.78;5083958;28;20064;-70
2022/05/27 12:07:19;;;;;;;4.32;1.80;;;;;;;12.08;66.74;98862.91;5088809;28;20047;-70
2022/05/27 12:09:49;;;;;;;;;;;;;;;12.11;65.94;98864.19;5089337;28;20032;-71
2022/05/27 12:12:31;;;;;;;8.65;1.92;;;;;;;12.20;66.41;98867.69;5087715;28;19984;-70
2022/05/27 12:15:07;;;;;;;3.72;1.90;;;;;;;12.27;66.31;98865.19;5083842;28;20115;-70
2022/05/27 12:17:40;;;;;;;3.78;1.75;;;;;;;12.43;66.48;98872.84;5069859;28;20028;-70
2022/05/27 12:20:07;;;;;;;4.10;1.90;;;;;;;12.53;65.57;98867.75;5075374;28;20039;-70
2022/05/27 12:22:35;;;;;;;2.95;1.88;;;;;;;12.50;64.69;98878.63;5091403;28;20140;-71
2022/05/27 12:25:07;;;;;;;2.50;1.75;;;;;;;12.48;64.90;98867.91;5084650;28;20137;-71
2022/05/27 12:27:34;;;;;;;3.88;1.60;;;;;;;12.47;65.26;98869.06;5078994;28;20028;-71
2022/05/27 12:30:00;;;;;;;2.05;1.70;;;;;;;12.52;64.69;98870.81;5090873;28;20043;-70